createdAt,value
2023-02-21T00:00:52.425Z,17.40
2023-02-21T00:03:39.489Z,18.80
2023-02-21T00:06:26.825Z,18.60
2023-02-21T00:09:14.007Z,20.10
2023-02-21T00:12:01.326Z,20.70
2023-02-21T00:14:46.834Z,21.30
2023-02-21T00:17:32.516Z,20.90
2023-02-21T00:20:18.634Z,21.10
2023-02-21T00:23:04.883Z,21.30
2023-02-21T00:25:51.969Z,21.80
2023-02-21T00:28:37.555Z,20.00
2023-02-21T00:31:23.504Z,21.60
2023-02-21T00:34:08.776Z,22.00
2023-02-21T00:36:54.301Z,22.00
2023-02-21T00:39:40.061Z,23.00
2023-02-21T00:42:27.196Z,22.30
2023-02-21T00:45:12.981Z,24.10
2023-02-21T00:47:59.014Z,26.20
2023-02-21T00:50:44.644Z,24.00
2023-02-21T00:53:30.108Z,25.00
2023-02-21T00:56:15.760Z,24.80
2023-02-21T00:59:02.443Z,25.80
2023-02-21T01:01:48.104Z,26.90
2023-02-21T01:04:33.628Z,27.60
2023-02-21T01:07:19.351Z,27.20
2023-02-21T01:10:04.926Z,28.10
2023-02-21T01:12:50.567Z,29.90
2023-02-21T01:15:37.662Z,30.00
2023-02-21T01:18:23.396Z,29.30
2023-02-21T01:21:08.996Z,29.80
2023-02-21T01:23:54.414Z,30.60
2023-02-21T01:26:40.055Z,33.10
2023-02-21T01:29:25.890Z,33.00
2023-02-21T01:32:12.653Z,33.30
2023-02-21T01:34:58.032Z,33.10
2023-02-21T01:37:43.754Z,34.10
2023-02-21T01:40:33.499Z,36.60
2023-02-21T01:43:19.172Z,36.80
2023-02-21T01:46:09.277Z,38.30
2023-02-21T01:48:56.540Z,39.10
2023-02-21T01:51:45.456Z,36.80
2023-02-21T01:54:31.438Z,37.70
2023-02-21T01:57:19.608Z,38.70
2023-02-21T02:00:05.848Z,39.30
2023-02-21T02:03:01.813Z,40.20
2023-02-21T02:05:48.869Z,41.30
2023-02-21T02:08:39.371Z,41.30
2023-02-21T02:11:35.463Z,44.00
2023-02-21T02:14:21.155Z,43.10
2023-02-21T02:16:57.654Z,46.30
2023-02-21T02:20:22.095Z,44.70
2023-02-21T02:23:27.944Z,46.70
2023-02-21T02:26:19.019Z,49.50
2023-02-21T02:29:05.813Z,49.30
2023-02-21T02:31:47.697Z,62.00
2023-02-21T02:34:44.733Z,50.20
2023-02-21T02:37:19.772Z,51.30
2023-02-21T02:39:53.002Z,49.60
2023-02-21T02:42:37.664Z,50.70
2023-02-21T02:45:13.649Z,49.20
2023-02-21T02:47:45.861Z,52.10
2023-02-21T02:50:17.592Z,51.00
2023-02-21T02:52:53.421Z,51.80
2023-02-21T02:55:37.517Z,54.50
2023-02-21T02:58:06.506Z,53.60
2023-02-21T03:00:38.641Z,52.00
2023-02-21T03:03:25.745Z,54.20
2023-02-21T03:06:14.271Z,58.40
2023-02-21T03:08:53.124Z,57.50
2023-02-21T03:11:23.944Z,60.40
2023-02-21T03:13:58.763Z,57.90
2023-02-21T03:16:30.043Z,62.00
2023-02-21T03:19:03.062Z,63.80
2023-02-21T03:21:37.270Z,81.40
2023-02-21T03:24:07.252Z,65.90
2023-02-21T03:26:38.224Z,67.00
2023-02-21T03:29:06.526Z,66.20
2023-02-21T03:31:38.897Z,66.00
2023-02-21T03:34:06.983Z,65.90
2023-02-21T03:36:38.153Z,67.70
2023-02-21T03:39:06.489Z,66.70
2023-02-21T03:41:34.730Z,68.10
2023-02-21T03:44:02.827Z,68.80
2023-02-21T03:46:30.882Z,71.40
2023-02-21T03:48:58.951Z,70.20
2023-02-21T03:51:26.994Z,70.60
2023-02-21T03:53:56.414Z,75.30
2023-02-21T03:56:28.078Z,76.80
2023-02-21T03:59:01.632Z,77.70
2023-02-21T04:01:30.045Z,76.40
2023-02-21T04:03:58.149Z,75.90
2023-02-21T04:06:26.266Z,77.90
2023-02-21T04:08:54.404Z,82.20
2023-02-21T04:11:24.148Z,83.10
2023-02-21T04:13:52.184Z,80.30
2023-02-21T04:16:20.301Z,95.20
2023-02-21T04:18:48.413Z,85.80
2023-02-21T04:21:19.057Z,86.80
2023-02-21T04:23:47.175Z,86.30
2023-02-21T04:26:15.236Z,85.40
2023-02-21T04:28:44.662Z,86.40
2023-02-21T04:31:12.905Z,90.20
2023-02-21T04:33:41.385Z,89.80
2023-02-21T04:36:10.024Z,89.60
2023-02-21T04:38:38.673Z,90.80
2023-02-21T04:41:07.951Z,91.30
2023-02-21T04:43:36.053Z,91.20
2023-02-21T04:46:05.716Z,91.60
2023-02-21T04:48:34.169Z,91.40
2023-02-21T04:51:14.850Z,91.40
2023-02-21T04:53:43.666Z,94.20
2023-02-21T04:56:12.867Z,93.60
2023-02-21T04:58:45.193Z,94.50
2023-02-21T05:01:16.771Z,95.30
2023-02-21T05:03:45.601Z,95.10
2023-02-21T05:06:19.389Z,95.00
2023-02-21T05:08:47.545Z,95.00
2023-02-21T05:11:16.330Z,95.20
2023-02-21T05:13:45.002Z,95.20
2023-02-21T05:16:13.345Z,95.20
2023-02-21T05:18:45.276Z,95.90
2023-02-21T05:21:13.975Z,98.40
2023-02-21T05:23:54.265Z,99.80
2023-02-21T05:26:24.229Z,99.50
2023-02-21T05:28:52.867Z,99.70
2023-02-21T05:31:21.686Z,99.20
2023-02-21T05:33:51.222Z,99.90
2023-02-21T05:36:19.525Z,99.90
2023-02-21T05:38:49.068Z,99.90
2023-02-21T05:41:18.115Z,99.90
2023-02-21T05:43:46.581Z,99.90
2023-02-21T05:46:23.530Z,99.90
2023-02-21T05:48:53.659Z,99.90
2023-02-21T05:51:22.291Z,99.90
2023-02-21T05:53:51.151Z,99.90
2023-02-21T05:56:21.236Z,99.90
2023-02-21T05:58:49.372Z,99.90
2023-02-21T06:01:17.672Z,99.90
2023-02-21T06:03:45.919Z,99.90
2023-02-21T06:06:16.058Z,99.90
2023-02-21T06:08:45.306Z,99.90
2023-02-21T06:11:14.227Z,99.90
2023-02-21T06:13:43.031Z,99.90
2023-02-21T06:16:11.105Z,99.90
2023-02-21T06:18:39.159Z,99.90
2023-02-21T06:21:07.631Z,99.90
2023-02-21T06:23:37.094Z,99.90
2023-02-21T06:26:05.510Z,99.90
2023-02-21T06:28:33.657Z,99.90
2023-02-21T06:31:02.295Z,99.90
2023-02-21T06:33:30.433Z,99.90
2023-02-21T06:35:58.636Z,99.90
2023-02-21T06:38:26.736Z,99.90
2023-02-21T06:40:56.161Z,99.90
2023-02-21T06:43:24.257Z,99.90
2023-02-21T06:45:52.398Z,99.90
2023-02-21T06:48:20.482Z,99.90
2023-02-21T06:50:48.546Z,99.90
2023-02-21T06:53:16.642Z,99.90
2023-02-21T06:55:44.696Z,99.90
2023-02-21T06:58:14.188Z,99.90
2023-02-21T07:00:42.304Z,99.90
2023-02-21T07:03:10.356Z,99.90
2023-02-21T07:05:39.133Z,99.90
2023-02-21T07:08:07.322Z,99.90
2023-02-21T07:10:35.430Z,99.90
2023-02-21T07:13:03.506Z,99.90
2023-02-21T07:15:33.106Z,99.90
2023-02-21T07:18:01.359Z,99.90
2023-02-21T07:20:29.521Z,99.90
2023-02-21T07:22:57.622Z,99.90
2023-02-21T07:25:26.158Z,99.90
2023-02-21T07:27:54.214Z,99.90
2023-02-21T07:30:22.463Z,99.90
2023-02-21T07:32:52.006Z,99.90
2023-02-21T07:35:20.176Z,99.90
2023-02-21T07:37:48.398Z,99.90
2023-02-21T07:40:16.621Z,99.90
2023-02-21T07:42:45.381Z,99.90
2023-02-21T07:45:14.119Z,99.90
2023-02-21T07:47:43.874Z,99.90
2023-02-21T07:50:13.712Z,99.90
2023-02-21T07:52:41.816Z,99.90
2023-02-21T07:55:12.165Z,99.90
2023-02-21T07:57:40.465Z,99.90
2023-02-21T08:00:10.086Z,99.90
2023-02-21T08:02:38.136Z,99.90
2023-02-21T08:05:06.714Z,99.90
2023-02-21T08:07:36.289Z,99.90
2023-02-21T08:10:04.745Z,99.90
2023-02-21T08:12:32.815Z,99.90
2023-02-21T08:15:00.982Z,99.90
2023-02-21T08:17:29.228Z,99.90
2023-02-21T08:19:57.512Z,99.90
2023-02-21T08:22:25.696Z,99.90
2023-02-21T08:24:55.245Z,99.90
2023-02-21T08:27:23.480Z,99.90
2023-02-21T08:29:52.287Z,99.90
2023-02-21T08:32:21.466Z,99.90
2023-02-21T08:34:50.815Z,99.90
2023-02-21T08:37:19.997Z,99.90
2023-02-21T08:39:48.281Z,99.90
2023-02-21T08:42:18.046Z,99.90
2023-02-21T08:44:46.950Z,99.90
2023-02-21T08:47:16.863Z,99.90
2023-02-21T08:49:47.299Z,99.90
2023-02-21T08:52:16.602Z,99.90
2023-02-21T08:54:45.523Z,99.90
2023-02-21T08:57:14.269Z,99.90
2023-02-21T08:59:45.137Z,99.90
2023-02-21T09:02:17.217Z,99.90
2023-02-21T09:04:45.372Z,99.90
2023-02-21T09:07:14.187Z,99.90
2023-02-21T09:09:42.349Z,99.90
2023-02-21T09:12:11.085Z,99.90
2023-02-21T09:14:41.063Z,99.90
2023-02-21T09:17:13.466Z,99.90
2023-02-21T09:19:42.285Z,99.90
2023-02-21T09:22:10.925Z,99.90
2023-02-21T09:24:39.335Z,99.90
2023-02-21T09:27:07.948Z,99.90
2023-02-21T09:29:46.021Z,99.90
2023-02-21T09:32:16.375Z,99.90
2023-02-21T09:34:44.688Z,99.90
2023-02-21T09:37:12.853Z,99.90
2023-02-21T09:39:40.967Z,99.90
2023-02-21T09:42:11.888Z,99.90
2023-02-21T09:44:40.059Z,99.90
2023-02-21T09:47:09.077Z,99.90
2023-02-21T09:49:41.621Z,99.90
2023-02-21T09:52:19.253Z,99.90
2023-02-21T09:54:52.430Z,99.90
2023-02-21T09:57:20.609Z,99.90
2023-02-21T09:59:49.899Z,99.90
2023-02-21T10:02:31.199Z,99.90
2023-02-21T10:05:08.688Z,99.90
2023-02-21T10:07:45.897Z,99.90
2023-02-21T10:10:18.639Z,99.90
2023-02-21T10:12:55.069Z,99.90
2023-02-21T10:15:41.778Z,99.90
2023-02-21T10:18:21.001Z,99.90
2023-02-21T10:20:54.761Z,99.90
2023-02-21T10:23:28.437Z,99.90
2023-02-21T10:25:59.887Z,99.90
2023-02-21T10:28:28.511Z,99.90
2023-02-21T10:31:00.175Z,99.90
2023-02-21T10:33:28.877Z,99.90
2023-02-21T10:35:58.374Z,99.90
2023-02-21T10:38:27.716Z,99.90
2023-02-21T10:40:58.251Z,99.90
2023-02-21T10:43:32.659Z,99.90
2023-02-21T10:46:05.407Z,99.90
2023-02-21T10:48:37.215Z,99.90
2023-02-21T10:51:12.564Z,99.90
2023-02-21T10:53:42.388Z,99.90
2023-02-21T10:56:31.451Z,99.90
2023-02-21T10:59:01.519Z,99.90
2023-02-21T11:01:39.693Z,99.90
2023-02-21T11:04:23.573Z,99.90
2023-02-21T11:06:55.961Z,99.90
2023-02-21T11:09:35.203Z,99.90
2023-02-21T11:12:06.160Z,99.90
2023-02-21T11:14:34.990Z,99.90
2023-02-21T11:17:16.406Z,99.90
2023-02-21T11:19:50.215Z,99.90
2023-02-21T11:22:23.115Z,99.90
2023-02-21T11:25:00.392Z,99.90
2023-02-21T11:27:31.260Z,99.90
2023-02-21T11:30:01.177Z,99.90
2023-02-21T11:32:34.012Z,99.90
2023-02-21T11:35:05.137Z,99.90
2023-02-21T11:37:35.151Z,99.90
2023-02-21T11:40:05.762Z,99.90
2023-02-21T11:42:35.131Z,99.90
2023-02-21T11:45:19.671Z,99.90
2023-02-21T11:47:54.985Z,99.90
2023-02-21T11:50:27.054Z,99.90
2023-02-21T11:53:03.272Z,99.90
2023-02-21T11:55:31.397Z,97.60
2023-02-21T11:58:11.447Z,93.70
2023-02-21T12:01:01.876Z,92.70
2023-02-21T12:04:02.818Z,92.00
2023-02-21T12:06:38.580Z,80.80
2023-02-21T12:09:11.440Z,78.40
2023-02-21T12:11:50.143Z,80.00
2023-02-21T12:14:33.136Z,82.90
2023-02-21T12:17:15.035Z,80.50
2023-02-21T12:20:08.516Z,79.40
2023-02-21T12:22:49.413Z,82.50
2023-02-21T12:25:24.779Z,83.50
2023-02-21T12:27:58.777Z,72.40
2023-02-21T12:31:05.664Z,71.00
2023-02-21T12:33:44.087Z,68.10
2023-02-21T12:36:40.846Z,61.80
2023-02-21T12:39:32.579Z,69.40
2023-02-21T12:42:16.421Z,70.70
2023-02-21T12:44:56.049Z,70.70
2023-02-21T12:47:29.657Z,72.40
2023-02-21T12:50:05.216Z,70.40
2023-02-21T12:52:37.611Z,66.30
2023-02-21T12:55:10.845Z,67.30
2023-02-21T12:58:00.563Z,72.90
2023-02-21T13:00:34.867Z,76.10
2023-02-21T13:03:18.786Z,78.50
2023-02-21T13:05:49.813Z,75.20
2023-02-21T13:08:22.491Z,78.90
2023-02-21T13:10:56.326Z,77.10
2023-02-21T13:13:32.308Z,77.80
2023-02-21T13:16:04.081Z,76.60
2023-02-21T13:18:35.694Z,73.40
2023-02-21T13:21:17.487Z,73.00
2023-02-21T13:24:12.349Z,69.70
2023-02-21T13:26:51.627Z,72.90
2023-02-21T13:29:25.260Z,73.40
2023-02-21T13:32:00.951Z,75.20
2023-02-21T13:34:32.308Z,76.40
2023-02-21T13:37:07.236Z,76.80
2023-02-21T13:39:37.757Z,74.70
2023-02-21T13:42:09.914Z,74.40
2023-02-21T13:44:42.343Z,75.40
2023-02-21T13:47:14.086Z,73.00
2023-02-21T13:49:53.626Z,73.30
2023-02-21T13:52:59.082Z,72.20
2023-02-21T13:55:36.133Z,69.80
2023-02-21T13:58:46.686Z,68.10
2023-02-21T14:01:32.952Z,68.70
2023-02-21T14:04:01.132Z,69.10
2023-02-21T14:06:37.635Z,72.10
2023-02-21T14:09:14.451Z,69.80
2023-02-21T14:11:49.181Z,65.50
2023-02-21T14:14:26.927Z,59.70
2023-02-21T14:17:03.210Z,59.30
2023-02-21T14:19:37.846Z,61.30
2023-02-21T14:22:12.840Z,63.50
2023-02-21T14:24:44.487Z,65.90
2023-02-21T14:27:33.800Z,66.90
2023-02-21T14:30:34.457Z,67.10
2023-02-21T14:33:19.248Z,69.70
2023-02-21T14:35:55.301Z,70.10
2023-02-21T14:38:26.026Z,70.10
2023-02-21T14:41:07.091Z,70.10
2023-02-21T14:43:58.139Z,68.50
2023-02-21T14:47:06.540Z,69.00
2023-02-21T14:49:56.889Z,66.40
2023-02-21T14:52:46.627Z,61.10
2023-02-21T14:55:37.593Z,58.60
2023-02-21T14:58:53.592Z,58.60
2023-02-21T15:01:42.154Z,59.30
2023-02-21T15:04:19.398Z,57.90
2023-02-21T15:07:04.515Z,58.20
2023-02-21T15:09:32.699Z,59.20
2023-02-21T15:12:02.493Z,57.80
2023-02-21T15:14:36.692Z,55.80
2023-02-21T15:17:14.273Z,56.60
2023-02-21T15:19:42.429Z,57.30
2023-02-21T15:22:19.173Z,57.70
2023-02-21T15:25:19.456Z,58.00
2023-02-21T15:28:01.870Z,58.70
2023-02-21T15:30:41.508Z,56.90
2023-02-21T15:33:16.579Z,55.60
2023-02-21T15:35:51.763Z,54.70
2023-02-21T15:38:29.181Z,55.60
2023-02-21T15:41:03.815Z,56.30
2023-02-21T15:43:39.516Z,56.30
2023-02-21T15:46:11.021Z,55.80
2023-02-21T15:48:39.557Z,56.10
2023-02-21T15:51:10.332Z,55.40
2023-02-21T15:53:40.131Z,54.50
2023-02-21T15:56:24.510Z,53.00
2023-02-21T15:59:14.560Z,53.70
2023-02-21T16:01:42.944Z,53.00
2023-02-21T16:04:20.485Z,52.00
2023-02-21T16:06:58.735Z,52.40
2023-02-21T16:09:30.401Z,51.30
2023-02-21T16:12:01.668Z,50.70
2023-02-21T16:14:39.253Z,50.50
2023-02-21T16:17:20.642Z,50.40
2023-02-21T16:19:53.839Z,48.10
2023-02-21T16:22:33.018Z,46.70
2023-02-21T16:25:21.945Z,46.40
2023-02-21T16:27:52.596Z,46.60
2023-02-21T16:30:22.932Z,45.70
2023-02-21T16:32:53.535Z,43.80
2023-02-21T16:35:24.494Z,44.50
2023-02-21T16:37:55.080Z,44.10
2023-02-21T16:40:27.163Z,43.30
2023-02-21T16:42:57.313Z,43.60
2023-02-21T16:45:25.709Z,42.20
2023-02-21T16:47:58.009Z,41.30
2023-02-21T16:50:30.351Z,41.40
2023-02-21T16:52:58.952Z,40.30
2023-02-21T16:55:29.379Z,39.90
2023-02-21T16:58:00.351Z,38.80
2023-02-21T17:00:28.645Z,38.70
2023-02-21T17:02:56.844Z,37.70
2023-02-21T17:05:25.576Z,36.60
2023-02-21T17:07:55.773Z,34.00
2023-02-21T17:10:24.431Z,33.60
2023-02-21T17:12:53.887Z,33.00
2023-02-21T17:15:23.820Z,32.50
2023-02-21T17:17:53.908Z,31.30
2023-02-21T17:20:24.079Z,30.20
2023-02-21T17:22:52.658Z,31.50
2023-02-21T17:25:21.758Z,31.80
2023-02-21T17:27:50.736Z,32.10
2023-02-21T17:30:23.283Z,32.30
2023-02-21T17:32:52.061Z,32.70
2023-02-21T17:35:22.497Z,32.50
2023-02-21T17:37:51.595Z,32.90
2023-02-21T17:40:21.746Z,29.80
2023-02-21T17:42:50.197Z,31.30
2023-02-21T17:45:21.762Z,32.40
2023-02-21T17:47:51.303Z,32.50
2023-02-21T17:50:19.710Z,32.00
2023-02-21T17:52:48.373Z,30.80
2023-02-21T17:55:20.728Z,30.00
2023-02-21T17:57:49.120Z,31.30
2023-02-21T18:00:24.337Z,30.60
2023-02-21T18:02:53.446Z,29.20
2023-02-21T18:05:22.173Z,29.10
2023-02-21T18:07:50.914Z,29.70
2023-02-21T18:10:20.219Z,30.60
2023-02-21T18:12:50.990Z,30.20
2023-02-21T18:15:22.280Z,29.80
2023-02-21T18:17:50.444Z,28.80
2023-02-21T18:20:18.862Z,29.30
2023-02-21T18:22:47.728Z,29.90
2023-02-21T18:25:21.288Z,30.10
2023-02-21T18:27:49.651Z,31.20
2023-02-21T18:30:18.963Z,30.50
2023-02-21T18:32:48.687Z,31.30
2023-02-21T18:35:17.918Z,31.80
2023-02-21T18:37:47.235Z,31.20
2023-02-21T18:40:16.391Z,31.80
2023-02-21T18:42:45.430Z,32.70
2023-02-21T18:45:14.000Z,32.70
2023-02-21T18:47:42.270Z,32.50
2023-02-21T18:50:12.054Z,34.80
2023-02-21T18:52:40.328Z,35.00
2023-02-21T18:55:09.077Z,34.60
2023-02-21T18:57:37.400Z,34.80
2023-02-21T19:00:07.634Z,35.60
2023-02-21T19:02:35.825Z,35.10
2023-02-21T19:05:04.046Z,35.50
2023-02-21T19:07:36.429Z,37.30
2023-02-21T19:10:04.905Z,38.00
2023-02-21T19:12:33.088Z,37.80
2023-02-21T19:15:01.205Z,38.10
2023-02-21T19:17:29.293Z,38.10
2023-02-21T19:19:57.652Z,38.30
2023-02-21T19:22:25.746Z,38.90
2023-02-21T19:24:55.150Z,39.10
2023-02-21T19:27:23.246Z,39.00
2023-02-21T19:29:52.177Z,38.90
2023-02-21T19:32:20.555Z,40.60
2023-02-21T19:34:50.332Z,41.30
2023-02-21T19:37:18.548Z,41.40
2023-02-21T19:39:46.709Z,40.90
2023-02-21T19:42:16.159Z,42.00
2023-02-21T19:44:44.351Z,43.10
2023-02-21T19:47:12.589Z,43.50
2023-02-21T19:49:45.756Z,43.70
2023-02-21T19:52:13.939Z,59.00
2023-02-21T19:54:42.231Z,45.30
2023-02-21T19:57:10.299Z,45.90
2023-02-21T19:59:39.791Z,46.40
2023-02-21T20:02:08.107Z,46.70
2023-02-21T20:04:36.392Z,46.90
2023-02-21T20:07:04.907Z,47.10
2023-02-21T20:09:33.051Z,47.10
2023-02-21T20:12:01.220Z,49.40
2023-02-21T20:14:29.762Z,49.50
2023-02-21T20:16:59.296Z,50.40
2023-02-21T20:19:27.761Z,50.20
2023-02-21T20:21:55.929Z,51.60
2023-02-21T20:24:24.302Z,52.10
2023-02-21T20:26:53.398Z,50.80
2023-02-21T20:29:23.544Z,53.60
2023-02-21T20:31:52.046Z,54.50
2023-02-21T20:34:21.767Z,57.70
2023-02-21T20:36:49.903Z,58.60
2023-02-21T20:39:20.949Z,58.00
2023-02-21T20:41:49.802Z,61.10
2023-02-21T20:44:17.931Z,61.20
2023-02-21T20:46:46.066Z,63.70
2023-02-21T20:49:14.901Z,66.70
2023-02-21T20:51:45.066Z,70.10
2023-02-21T20:54:19.910Z,69.30
2023-02-21T20:56:49.698Z,67.70
2023-02-21T20:59:19.980Z,69.10
2023-02-21T21:01:49.104Z,71.40
2023-02-21T21:04:18.669Z,73.50
2023-02-21T21:06:48.607Z,74.20
2023-02-21T21:09:18.023Z,76.50
2023-02-21T21:11:46.788Z,75.90
2023-02-21T21:14:16.546Z,74.70
2023-02-21T21:16:45.817Z,75.30
2023-02-21T21:19:14.060Z,76.10
2023-02-21T21:21:42.378Z,77.10
2023-02-21T21:24:11.902Z,78.50
2023-02-21T21:26:50.859Z,81.20
2023-02-21T21:29:19.011Z,82.60
2023-02-21T21:31:50.549Z,83.00
2023-02-21T21:34:23.157Z,84.50
2023-02-21T21:36:52.079Z,85.40
2023-02-21T21:39:23.399Z,85.70
2023-02-21T21:41:52.791Z,88.00
2023-02-21T21:44:22.443Z,87.70
2023-02-21T21:46:51.635Z,91.30
2023-02-21T21:49:21.123Z,93.80
2023-02-21T21:51:50.390Z,93.90
2023-02-21T21:54:21.678Z,93.10
2023-02-21T21:56:50.013Z,93.60
2023-02-21T21:59:20.324Z,93.70
2023-02-21T22:01:48.954Z,95.60
2023-02-21T22:04:18.954Z,94.90
2023-02-21T22:06:48.266Z,96.10
2023-02-21T22:09:16.717Z,96.20
2023-02-21T22:11:48.242Z,96.50
2023-02-21T22:14:18.077Z,96.50
2023-02-21T22:16:48.101Z,96.50
2023-02-21T22:19:17.396Z,98.40
2023-02-21T22:21:45.728Z,99.90
2023-02-21T22:24:15.693Z,99.90
2023-02-21T22:26:45.954Z,99.90
2023-02-21T22:29:15.621Z,99.90
2023-02-21T22:31:43.951Z,99.90
2023-02-21T22:34:23.456Z,99.90
2023-02-21T22:36:52.704Z,99.90
2023-02-21T22:39:21.366Z,99.90
2023-02-21T22:41:50.843Z,99.90
2023-02-21T22:44:19.772Z,99.90
2023-02-21T22:46:58.266Z,99.90
2023-02-21T22:49:27.215Z,99.90
2023-02-21T22:51:57.479Z,99.90
2023-02-21T22:54:25.967Z,99.90
2023-02-21T22:57:00.770Z,99.90
2023-02-21T22:59:28.936Z,99.90
2023-02-21T23:01:58.335Z,99.90
2023-02-21T23:04:26.892Z,99.90
2023-02-21T23:06:55.832Z,99.90
2023-02-21T23:09:24.860Z,99.90
2023-02-21T23:11:56.537Z,99.90
2023-02-21T23:14:24.602Z,99.90
2023-02-21T23:16:56.713Z,99.90
2023-02-21T23:19:25.264Z,99.90
2023-02-21T23:21:54.293Z,99.90
2023-02-21T23:24:23.471Z,99.90
2023-02-21T23:26:54.598Z,99.90
2023-02-21T23:29:26.486Z,99.90
2023-02-21T23:31:57.756Z,99.90
2023-02-21T23:34:40.396Z,99.90
2023-02-21T23:37:09.384Z,99.90
2023-02-21T23:39:37.581Z,99.90
2023-02-21T23:42:06.040Z,99.90
2023-02-21T23:44:36.368Z,99.90
2023-02-21T23:47:06.033Z,99.90
2023-02-21T23:49:34.430Z,99.90
2023-02-21T23:52:02.612Z,99.90
2023-02-21T23:54:30.897Z,99.90
2023-02-21T23:57:00.732Z,99.90
2023-02-21T23:59:29.065Z,99.90
